Wetterdaten: Sonntag, 13.08.2017
Datum Zeit Temp. A. Feuchte A. Luftdruck Regen Wind Richtung Richtung Sonnenschein Helligkeit Solar
13.08.2017 00:01 16,8 C 86 % 1014,7 hPa 0,0 l/m 10,1 km/h (2 Bft) SW22.5 220 0 min 0 lux 0 W/m
13.08.2017 00:05 16,9 C 86 % 1014,7 hPa 0,0 l/m 13,1 km/h (3 Bft) SW22.5 230 0 min 0 lux 0 W/m
13.08.2017 00:11 16,8 C 86 % 1014,7 hPa 0,0 l/m 9,0 km/h (2 Bft) SW 225 0 min 0 lux 0 W/m
13.08.2017 00:16 16,8 C 86 % 1014,7 hPa 0,0 l/m 7,4 km/h (2 Bft) SW 220 0 min 0 lux 0 W/m
13.08.2017 00:20 16,8 C 86 % 1014,7 hPa 0,0 l/m 9,4 km/h (2 Bft) SW22.5 225 0 min 0 lux 0 W/m
13.08.2017 00:25 16,7 C 86 % 1014,7 hPa 0,0 l/m 10,8 km/h (2 Bft) SW22.5 225 0 min 0 lux 0 W/m
13.08.2017 00:30 16,7 C 86 % 1014,7 hPa 0,0 l/m 12,0 km/h (2 Bft) SW22.5 220 0 min 0 lux 0 W/m
13.08.2017 00:36 16,7 C 86 % 1014,7 hPa 0,0 l/m 9,3 km/h (2 Bft) SW22.5 225 0 min 0 lux 0 W/m
13.08.2017 00:41 16,6 C 86 % 1014,7 hPa 0,0 l/m 7,6 km/h (2 Bft) SW 225 0 min 0 lux 0 W/m
13.08.2017 00:46 16,6 C 86 % 1015,7 hPa 0,0 l/m 5,2 km/h (1 Bft) SW 225 0 min 0 lux 0 W/m
13.08.2017 00:50 16,6 C 86 % 1015,7 hPa 0,0 l/m 8,1 km/h (2 Bft) SW22.5 225 0 min 0 lux 0 W/m
13.08.2017 00:55 16,6 C 86 % 1015,7 hPa 0,0 l/m 6,5 km/h (2 Bft) SW 225 0 min 0 lux 0 W/m
13.08.2017 01:01 16,6 C 86 % 1015,7 hPa 0,0 l/m 6,9 km/h (2 Bft) SW 230 0 min 0 lux 0 W/m
13.08.2017 01:05 16,6 C 86 % 1015,7 hPa 0,0 l/m 8,0 km/h (2 Bft) SW22.5 225 0 min 0 lux 0 W/m
13.08.2017 01:10 16,7 C 87 % 1015,7 hPa 0,0 l/m 10,1 km/h (2 Bft) SW22.5 230 0 min 0 lux 0 W/m
13.08.2017 01:15 16,7 C 87 % 1015,7 hPa 0,0 l/m 8,9 km/h (2 Bft) W-SW 240 0 min 0 lux 0 W/m
13.08.2017 01:21 16,6 C 86 % 1015,7 hPa 0,1 l/m 9,0 km/h (2 Bft) W-NW22.5 285 0 min 0 lux 0 W/m
13.08.2017 01:26 16,6 C 87 % 1015,7 hPa 0,1 l/m 7,8 km/h (2 Bft) NW22.5 305 0 min 0 lux 0 W/m
13.08.2017 01:30 16,6 C 87 % 1015,7 hPa 0,1 l/m 5,6 km/h (2 Bft) NW22.5 305 0 min 0 lux 0 W/m
13.08.2017 01:35 16,6 C 87 % 1015,7 hPa 0,4 l/m 0,3 km/h (0 Bft) W-NW 300 0 min 0 lux 0 W/m
13.08.2017 01:40 16,5 C 87 % 1015,7 hPa 0,0 l/m 6,3 km/h (2 Bft) W22.5 270 0 min 0 lux 0 W/m
13.08.2017 01:46 16,5 C 87 % 1015,7 hPa 0,0 l/m 5,2 km/h (1 Bft) W-SW 255 0 min 0 lux 0 W/m
13.08.2017 01:51 16,4 C 87 % 1015,7 hPa 0,0 l/m 5,0 km/h (1 Bft) W 260 0 min 0 lux 0 W/m
13.08.2017 01:56 16,4 C 87 % 1015,7 hPa 0,0 l/m 4,2 km/h (1 Bft) W 275 0 min 0 lux 0 W/m
13.08.2017 02:00 16,5 C 87 % 1015,7 hPa 0,0 l/m 0,0 km/h (0 Bft) W 275 0 min 0 lux 0 W/m
13.08.2017 02:06 16,4 C 87 % 1015,7 hPa 0,0 l/m 0,0 km/h (0 Bft) W 275 0 min 0 lux 0 W/m
13.08.2017 02:11 16,4 C 87 % 1015,7 hPa 0,0 l/m 0,0 km/h (0 Bft) W 275 0 min 0 lux 0 W/m
13.08.2017 02:15 16,4 C 87 % 1015,7 hPa 0,0 l/m 0,0 km/h (0 Bft) W 275 0 min 0 lux 0 W/m
13.08.2017 02:20 16,4 C 87 % 1015,7 hPa 0,0 l/m 0,0 km/h (0 Bft) W 275 0 min 0 lux 0 W/m
13.08.2017 02:26 16,4 C 87 % 1015,7 hPa 0,0 l/m 0,0 km/h (0 Bft) W 275 0 min 0 lux 0 W/m
13.08.2017 02:31 16,4 C 87 % 1015,7 hPa 0,0 l/m 0,0 km/h (0 Bft) W 275 0 min 0 lux 0 W/m
13.08.2017 02:36 16,4 C 87 % 1015,7 hPa 0,0 l/m 0,0 km/h (0 Bft) W 275 0 min 0 lux 0 W/m
13.08.2017 02:40 16,4 C 87 % 1015,7 hPa 0,0 l/m 0,0 km/h (0 Bft) W-SW22.5 255 0 min 0 lux 0 W/m
13.08.2017 02:45 16,4 C 87 % 1015,7 hPa 0,0 l/m 0,0 km/h (0 Bft) W-SW 250 0 min 0 lux 0 W/m
13.08.2017 02:50 16,4 C 87 % 1015,7 hPa 0,0 l/m 0,0 km/h (0 Bft) W-SW 250 0 min 0 lux 0 W/m
13.08.2017 02:56 16,4 C 87 % 1015,7 hPa 0,0 l/m 0,8 km/h (0 Bft) W-SW 250 0 min 0 lux 0 W/m
13.08.2017 03:01 16,4 C 87 % 1015,7 hPa 0,0 l/m 0,0 km/h (0 Bft) W-SW 250 0 min 0 lux 0 W/m
13.08.2017 03:05 16,4 C 88 % 1015,7 hPa 0,0 l/m 0,0 km/h (0 Bft) W-SW 245 0 min 0 lux 0 W/m
13.08.2017 03:11 16,4 C 88 % 1015,7 hPa 0,0 l/m 0,0 km/h (0 Bft) W-SW 245 0 min 0 lux 0 W/m
13.08.2017 03:16 16,3 C 88 % 1015,7 hPa 0,0 l/m 0,0 km/h (0 Bft) W-SW 245 0 min 0 lux 0 W/m
13.08.2017 03:21 16,3 C 88 % 1015,7 hPa 0,0 l/m 0,0 km/h (0 Bft) W-SW 245 0 min 0 lux 0 W/m
13.08.2017 03:25 16,4 C 88 % 1015,7 hPa 0,0 l/m 0,0 km/h (0 Bft) W-SW 245 0 min 0 lux 0 W/m
13.08.2017 03:30 16,4 C 88 % 1015,7 hPa 0,0 l/m 0,0 km/h (0 Bft) W 260 0 min 0 lux 0 W/m
13.08.2017 03:36 16,4 C 88 % 1015,7 hPa 0,1 l/m 0,0 km/h (0 Bft) W-SW 255 0 min 0 lux 0 W/m
13.08.2017 03:41 16,4 C 88 % 1015,7 hPa 0,0 l/m 0,0 km/h (0 Bft) W 270 0 min 0 lux 0 W/m
13.08.2017 03:46 16,4 C 88 % 1015,7 hPa 0,0 l/m 0,0 km/h (0 Bft) W 270 0 min 0 lux 0 W/m
13.08.2017 03:50 16,4 C 88 % 1015,7 hPa 0,0 l/m 0,0 km/h (0 Bft) W 270 0 min 0 lux 0 W/m
13.08.2017 03:55 16,4 C 88 % 1015,7 hPa 0,0 l/m 0,0 km/h (0 Bft) W 270 0 min 0 lux 0 W/m
13.08.2017 04:01 16,4 C 88 % 1015,7 hPa 0,0 l/m 0,0 km/h (0 Bft) W 270 0 min 0 lux 0 W/m
13.08.2017 04:05 16,4 C 88 % 1015,7 hPa 0,0 l/m 0,0 km/h (0 Bft) W 270 0 min 0 lux 0 W/m
13.08.2017 04:10 16,3 C 88 % 1015,7 hPa 0,0 l/m 0,0 km/h (0 Bft) W-SW 250 0 min 0 lux 0 W/m
13.08.2017 04:15 16,3 C 88 % 1015,7 hPa 0,0 l/m 0,0 km/h (0 Bft) W-SW 250 0 min 0 lux 0 W/m
13.08.2017 04:21 16,3 C 88 % 1015,7 hPa 0,0 l/m 0,0 km/h (0 Bft) W 265 0 min 0 lux 0 W/m
13.08.2017 04:26 16,3 C 88 % 1015,7 hPa 0,0 l/m 0,0 km/h (0 Bft) W-SW 250 0 min 0 lux 0 W/m
13.08.2017 04:30 16,3 C 88 % 1015,7 hPa 0,0 l/m 0,0 km/h (0 Bft) W-NW 290 0 min 0 lux 0 W/m
13.08.2017 04:35 16,3 C 88 % 1015,7 hPa 0,0 l/m 0,0 km/h (0 Bft) W-NW 290 0 min 0 lux 0 W/m
13.08.2017 04:40 16,3 C 88 % 1015,7 hPa 0,0 l/m 0,0 km/h (0 Bft) W-NW 290 0 min 0 lux 0 W/m
13.08.2017 04:46 16,2 C 88 % 1015,7 hPa 0,0 l/m 0,0 km/h (0 Bft) W-SW 245 0 min 0 lux 0 W/m
13.08.2017 04:51 16,2 C 88 % 1015,7 hPa 0,0 l/m 0,0 km/h (0 Bft) W-SW 245 0 min 0 lux 0 W/m
13.08.2017 04:56 16,2 C 88 % 1015,7 hPa 0,0 l/m 0,0 km/h (0 Bft) W-SW 245 0 min 0 lux 0 W/m
13.08.2017 05:00 16,2 C 88 % 1015,7 hPa 0,0 l/m 0,0 km/h (0 Bft) W-SW 245 0 min 0 lux 0 W/m
13.08.2017 05:06 16,2 C 88 % 1015,7 hPa 0,0 l/m 0,0 km/h (0 Bft) W-SW 245 0 min 0 lux 0 W/m
13.08.2017 05:11 16,2 C 88 % 1015,7 hPa 0,0 l/m 0,0 km/h (0 Bft) W-SW 245 0 min 0 lux 0 W/m
13.08.2017 05:15 16,2 C 88 % 1015,7 hPa 0,0 l/m 0,0 km/h (0 Bft) W-SW 245 0 min 0 lux 0 W/m
13.08.2017 05:20 16,1 C 88 % 1015,7 hPa 0,0 l/m 0,0 km/h (0 Bft) W-SW 245 0 min 0 lux 0 W/m
13.08.2017 05:25 16,0 C 89 % 1015,7 hPa 0,0 l/m 0,0 km/h (0 Bft) W-SW 245 0 min 0 lux 0 W/m
13.08.2017 05:31 16,0 C 89 % 1015,7 hPa 0,0 l/m 0,0 km/h (0 Bft) W-SW 250 0 min 0 lux 0 W/m
13.08.2017 05:36 16,0 C 89 % 1015,7 hPa 0,0 l/m 0,0 km/h (0 Bft) W22.5 270 0 min 0 lux 0 W/m
13.08.2017 05:40 16,0 C 89 % 1015,7 hPa 0,0 l/m 0,0 km/h (0 Bft) W 275 0 min 0 lux 0 W/m
13.08.2017 05:45 16,0 C 89 % 1015,7 hPa 0,0 l/m 0,0 km/h (0 Bft) W 275 0 min 0 lux 0 W/m
13.08.2017 05:50 15,9 C 89 % 1015,7 hPa 0,0 l/m 0,0 km/h (0 Bft) W 280 0 min 0 lux 0 W/m
13.08.2017 05:56 15,9 C 89 % 1015,7 hPa 0,0 l/m 0,0 km/h (0 Bft) W-NW22.5 295 0 min 23 lux 0 W/m
13.08.2017 06:01 15,9 C 89 % 1015,7 hPa 0,0 l/m 0,0 km/h (0 Bft) W-NW22.5 300 0 min 23 lux 0 W/m
13.08.2017 06:05 15,9 C 89 % 1015,7 hPa 0,0 l/m 0,0 km/h (0 Bft) W22.5 265 0 min 56 lux 0 W/m
13.08.2017 06:11 15,8 C 89 % 1015,7 hPa 0,0 l/m 0,0 km/h (0 Bft) W22.5 280 0 min 134 lux 0 W/m
13.08.2017 06:16 15,8 C 89 % 1015,7 hPa 0,0 l/m 0,0 km/h (0 Bft) W-NW22.5 290 0 min 268 lux 0 W/m
13.08.2017 06:21 15,8 C 89 % 1015,7 hPa 0,0 l/m 0,0 km/h (0 Bft) W-NW22.5 290 0 min 349 lux 0 W/m
13.08.2017 06:25 15,6 C 89 % 1015,7 hPa 0,0 l/m 0,0 km/h (0 Bft) W22.5 275 0 min 449 lux 3 W/m
13.08.2017 06:30 15,6 C 89 % 1015,7 hPa 0,0 l/m 0,0 km/h (0 Bft) W 265 0 min 746 lux 5 W/m
13.08.2017 06:36 15,6 C 89 % 1015,7 hPa 0,0 l/m 0,0 km/h (0 Bft) W 265 0 min 990 lux 7 W/m
13.08.2017 06:41 15,6 C 89 % 1015,7 hPa 0,0 l/m 0,0 km/h (0 Bft) W 265 0 min 1,23 klux 8 W/m
13.08.2017 06:46 15,5 C 89 % 1016,7 hPa 0,0 l/m 0,0 km/h (0 Bft) W 265 0 min 1,39 klux 10 W/m
13.08.2017 06:50 15,5 C 89 % 1016,7 hPa 0,0 l/m 0,0 km/h (0 Bft) W 265 0 min 2,09 klux 14 W/m
13.08.2017 06:55 15,6 C 89 % 1016,7 hPa 0,0 l/m 0,3 km/h (0 Bft) W-SW 250 0 min 2,87 klux 20 W/m
13.08.2017 07:01 15,5 C 89 % 1016,7 hPa 0,0 l/m 0,0 km/h (0 Bft) W-SW 245 0 min 3,67 klux 25 W/m
13.08.2017 07:05 15,6 C 89 % 1016,7 hPa 0,0 l/m 0,0 km/h (0 Bft) W-SW 245 0 min 4,42 klux 30 W/m
13.08.2017 07:10 15,5 C 89 % 1016,7 hPa 0,0 l/m 0,0 km/h (0 Bft) W-SW 250 0 min 4,35 klux 30 W/m
13.08.2017 07:15 15,5 C 89 % 1016,7 hPa 0,0 l/m 0,0 km/h (0 Bft) W-SW 250 0 min 4,12 klux 28 W/m
13.08.2017 07:21 15,5 C 89 % 1016,7 hPa 0,0 l/m 0,0 km/h (0 Bft) W-SW 250 0 min 4,35 klux 30 W/m
13.08.2017 07:26 15,5 C 89 % 1016,7 hPa 0,0 l/m 0,0 km/h (0 Bft) W-SW 250 0 min 4,56 klux 31 W/m
13.08.2017 07:30 15,5 C 89 % 1016,7 hPa 0,0 l/m 0,0 km/h (0 Bft) W-SW 250 0 min 5,07 klux 35 W/m
13.08.2017 07:35 15,4 C 89 % 1016,7 hPa 0,0 l/m 5,7 km/h (2 Bft) W22.5 260 0 min 4,75 klux 32 W/m
13.08.2017 07:41 15,5 C 89 % 1016,7 hPa 0,0 l/m 7,6 km/h (2 Bft) W22.5 265 0 min 3,59 klux 25 W/m
13.08.2017 07:46 15,6 C 89 % 1016,7 hPa 0,0 l/m 14,7 km/h (3 Bft) W22.5 275 0 min 3,48 klux 24 W/m
13.08.2017 07:51 15,6 C 89 % 1016,7 hPa 0,0 l/m 14,6 km/h (3 Bft) W22.5 280 0 min 3,57 klux 24 W/m
13.08.2017 07:55 15,5 C 89 % 1016,7 hPa 0,0 l/m 13,1 km/h (3 Bft) W22.5 275 0 min 4,24 klux 29 W/m
13.08.2017 08:00 15,4 C 89 % 1016,7 hPa 0,0 l/m 11,6 km/h (2 Bft) W22.5 275 0 min 4,98 klux 34 W/m
13.08.2017 08:06 15,3 C 89 % 1016,7 hPa 0,0 l/m 10,6 km/h (2 Bft) W22.5 280 0 min 19,6 klux 134 W/m
13.08.2017 08:10 15,6 C 89 % 1016,7 hPa 0,0 l/m 9,1 km/h (2 Bft) W22.5 260 4 min 22,7 klux 155 W/m
13.08.2017 08:15 15,8 C 89 % 1016,7 hPa 0,0 l/m 11,1 km/h (2 Bft) W-SW22.5 255 5 min 26,1 klux 179 W/m
13.08.2017 08:20 16,0 C 88 % 1016,7 hPa 0,0 l/m 7,4 km/h (2 Bft) W22.5 260 5 min 26,8 klux 183 W/m
13.08.2017 08:26 16,1 C 88 % 1016,7 hPa 0,0 l/m 10,6 km/h (2 Bft) W-SW45 245 6 min 31,1 klux 213 W/m
13.08.2017 08:31 16,2 C 88 % 1016,7 hPa 0,0 l/m 11,5 km/h (2 Bft) W-SW22.5 255 0 min 25,6 klux 175 W/m
13.08.2017 08:35 16,3 C 88 % 1016,7 hPa 0,0 l/m 10,8 km/h (2 Bft) SW22.5 230 4 min 30,9 klux 211 W/m
13.08.2017 08:40 16,5 C 88 % 1016,7 hPa 0,0 l/m 10,6 km/h (2 Bft) SW45 225 5 min 37,4 klux 256 W/m
13.08.2017 08:45 16,5 C 87 % 1017,7 hPa 0,0 l/m 11,4 km/h (2 Bft) SW22.5 235 5 min 38,8 klux 265 W/m
13.08.2017 08:51 16,6 C 87 % 1017,7 hPa 0,0 l/m 16,1 km/h (3 Bft) W-SW45 240 0 min 12,5 klux 86 W/m
13.08.2017 08:56 16,4 C 86 % 1017,7 hPa 0,0 l/m 13,9 km/h (3 Bft) SW22.5 230 0 min 31,1 klux 213 W/m
13.08.2017 09:00 16,6 C 86 % 1017,7 hPa 0,0 l/m 10,4 km/h (2 Bft) SW22.5 230 4 min 45,8 klux 313 W/m
13.08.2017 09:06 16,8 C 87 % 1017,7 hPa 0,0 l/m 11,6 km/h (2 Bft) SW22.5 235 0 min 23,3 klux 159 W/m
13.08.2017 09:11 16,6 C 86 % 1017,7 hPa 0,0 l/m 12,3 km/h (2 Bft) W-SW45 240 0 min 30,7 klux 210 W/m
13.08.2017 09:15 17,1 C 86 % 1017,7 hPa 0,0 l/m 10,8 km/h (2 Bft) W-SW22.5 250 4 min 51,9 klux 355 W/m
13.08.2017 09:20 17,2 C 85 % 1017,7 hPa 0,0 l/m 14,0 km/h (3 Bft) SW22.5 230 5 min 52,5 klux 359 W/m
13.08.2017 09:25 17,2 C 85 % 1017,7 hPa 0,0 l/m 10,0 km/h (2 Bft) W-SW45 240 5 min 47,0 klux 321 W/m
13.08.2017 09:31 17,0 C 84 % 1017,7 hPa 0,0 l/m 11,9 km/h (2 Bft) W-SW 245 0 min 27,1 klux 185 W/m
13.08.2017 09:36 16,8 C 83 % 1017,7 hPa 0,0 l/m 13,8 km/h (3 Bft) W-SW22.5 245 0 min 20,7 klux 142 W/m
13.08.2017 09:40 16,9 C 83 % 1017,7 hPa 0,0 l/m 10,6 km/h (2 Bft) W-SW45 245 0 min 24,1 klux 165 W/m
13.08.2017 09:45 17,2 C 83 % 1017,7 hPa 0,0 l/m 14,6 km/h (3 Bft) W-SW22.5 250 0 min 37,3 klux 255 W/m
13.08.2017 09:50 17,3 C 83 % 1017,7 hPa 0,0 l/m 14,4 km/h (3 Bft) W22.5 265 5 min 52,0 klux 356 W/m
13.08.2017 09:56 17,3 C 82 % 1017,7 hPa 0,0 l/m 15,0 km/h (3 Bft) W22.5 280 0 min 18,1 klux 124 W/m
13.08.2017 10:01 17,4 C 81 % 1017,7 hPa 0,0 l/m 16,0 km/h (3 Bft) SW45 230 5 min 56,2 klux 384 W/m
13.08.2017 10:05 17,6 C 79 % 1017,7 hPa 0,0 l/m 16,4 km/h (3 Bft) SW22.5 230 4 min 56,5 klux 386 W/m
13.08.2017 10:11 17,7 C 79 % 1017,7 hPa 0,0 l/m 12,0 km/h (2 Bft) SW22.5 235 6 min 57,1 klux 391 W/m
13.08.2017 10:16 18,2 C 79 % 1017,7 hPa 0,0 l/m 10,8 km/h (2 Bft) SW22.5 225 5 min 60,1 klux 411 W/m
13.08.2017 10:20 18,2 C 77 % 1017,7 hPa 0,0 l/m 14,1 km/h (3 Bft) W22.5 275 0 min 32,4 klux 222 W/m
13.08.2017 10:25 18,1 C 77 % 1017,7 hPa 0,0 l/m 13,1 km/h (3 Bft) W22.5 280 5 min 60,0 klux 410 W/m
13.08.2017 10:31 18,2 C 77 % 1018,7 hPa 0,0 l/m 13,8 km/h (3 Bft) W45 275 0 min 39,5 klux 270 W/m
13.08.2017 10:36 18,3 C 76 % 1018,7 hPa 0,0 l/m 9,4 km/h (2 Bft) W-SW45 240 0 min 19,2 klux 131 W/m
13.08.2017 10:41 18,2 C 76 % 1018,7 hPa 0,0 l/m 11,7 km/h (2 Bft) SW45 225 0 min 14,6 klux 100 W/m
13.08.2017 10:45 18,3 C 77 % 1018,7 hPa 0,0 l/m 16,3 km/h (3 Bft) SW45 230 4 min 63,2 klux 432 W/m
13.08.2017 10:50 18,9 C 77 % 1018,7 hPa 0,0 l/m 13,3 km/h (3 Bft) SW22.5 230 5 min 70,4 klux 482 W/m
13.08.2017 10:56 19,2 C 76 % 1018,7 hPa 0,0 l/m 13,5 km/h (3 Bft) SW45 225 6 min 66,4 klux 454 W/m
13.08.2017 11:01 19,0 C 74 % 1018,7 hPa 0,0 l/m 16,0 km/h (3 Bft) SW45 225 0 min 20,6 klux 141 W/m
13.08.2017 11:05 18,6 C 75 % 1018,7 hPa 0,0 l/m 15,1 km/h (3 Bft) SW22.5 235 0 min 21,5 klux 147 W/m
13.08.2017 11:11 18,7 C 75 % 1018,7 hPa 0,0 l/m 19,5 km/h (3 Bft) SW67.5 225 0 min 28,8 klux 197 W/m
13.08.2017 11:16 18,9 C 75 % 1018,7 hPa 0,0 l/m 16,8 km/h (3 Bft) SW45 230 5 min 67,3 klux 460 W/m
13.08.2017 11:21 19,2 C 74 % 1018,7 hPa 0,0 l/m 16,5 km/h (3 Bft) W-SW22.5 240 0 min 32,6 klux 223 W/m
13.08.2017 11:25 19,5 C 72 % 1018,7 hPa 0,0 l/m 19,9 km/h (4 Bft) SW45 235 4 min 72,7 klux 497 W/m
13.08.2017 11:30 19,2 C 71 % 1018,7 hPa 0,0 l/m 16,9 km/h (3 Bft) SW45 225 5 min 74,7 klux 511 W/m
13.08.2017 11:36 19,4 C 73 % 1018,7 hPa 0,0 l/m 17,0 km/h (3 Bft) SW45 220 6 min 71,8 klux 491 W/m
13.08.2017 11:41 20,0 C 72 % 1018,7 hPa 0,0 l/m 13,4 km/h (3 Bft) SW45 225 5 min 79,6 klux 544 W/m
13.08.2017 11:46 20,2 C 71 % 1018,7 hPa 0,0 l/m 18,6 km/h (3 Bft) SW45 225 5 min 80,6 klux 551 W/m
13.08.2017 11:50 19,6 C 70 % 1018,7 hPa 0,0 l/m 20,0 km/h (4 Bft) W-SW45 250 4 min 80,6 klux 551 W/m
13.08.2017 11:55 19,4 C 69 % 1018,7 hPa 0,0 l/m 14,6 km/h (3 Bft) SW22.5 230 5 min 72,4 klux 495 W/m
13.08.2017 12:01 19,5 C 71 % 1018,7 hPa 0,0 l/m 19,3 km/h (3 Bft) W67.5 260 6 min 71,6 klux 490 W/m
13.08.2017 12:05 19,5 C 71 % 1018,7 hPa 0,0 l/m 20,0 km/h (4 Bft) W-SW22.5 250 4 min 71,9 klux 492 W/m
13.08.2017 12:10 19,5 C 71 % 1018,7 hPa 0,0 l/m 13,5 km/h (3 Bft) W-SW22.5 250 5 min 72,1 klux 493 W/m
13.08.2017 12:16 19,8 C 69 % 1018,7 hPa 0,0 l/m 16,3 km/h (3 Bft) W-SW45 240 6 min 73,3 klux 501 W/m
13.08.2017 12:21 20,0 C 70 % 1018,7 hPa 0,0 l/m 15,7 km/h (3 Bft) W-SW22.5 240 5 min 72,8 klux 498 W/m
13.08.2017 12:26 20,2 C 69 % 1018,7 hPa 0,0 l/m 15,6 km/h (3 Bft) SW45 220 5 min 75,2 klux 514 W/m
13.08.2017 12:30 20,7 C 68 % 1018,7 hPa 0,0 l/m 14,5 km/h (3 Bft) SW45 230 4 min 75,0 klux 513 W/m
13.08.2017 12:35 20,7 C 68 % 1018,7 hPa 0,0 l/m 11,8 km/h (2 Bft) SW45 230 5 min 74,7 klux 511 W/m
13.08.2017 12:41 20,9 C 67 % 1018,7 hPa 0,0 l/m 19,7 km/h (3 Bft) SW67.5 230 6 min 76,5 klux 523 W/m
13.08.2017 12:46 20,8 C 67 % 1018,7 hPa 0,0 l/m 16,2 km/h (3 Bft) W-SW45 240 5 min 76,5 klux 523 W/m
13.08.2017 12:51 20,7 C 66 % 1018,7 hPa 0,0 l/m 16,8 km/h (3 Bft) W-SW45 255 5 min 83,4 klux 570 W/m
13.08.2017 12:55 20,2 C 66 % 1018,7 hPa 0,0 l/m 22,0 km/h (4 Bft) W45 265 0 min 28,0 klux 192 W/m
13.08.2017 13:00 20,0 C 67 % 1018,7 hPa 0,0 l/m 18,2 km/h (3 Bft) W22.5 265 5 min 82,6 klux 565 W/m
13.08.2017 13:06 20,2 C 66 % 1018,7 hPa 0,0 l/m 15,6 km/h (3 Bft) W22.5 270 6 min 79,5 klux 544 W/m
13.08.2017 13:10 20,2 C 66 % 1018,7 hPa 0,0 l/m 17,7 km/h (3 Bft) W-SW45 240 4 min 85,3 klux 583 W/m
13.08.2017 13:15 20,6 C 66 % 1018,7 hPa 0,0 l/m 17,3 km/h (3 Bft) W-NW22.5 290 5 min 79,7 klux 545 W/m
13.08.2017 13:21 20,4 C 63 % 1018,7 hPa 0,0 l/m 15,5 km/h (3 Bft) W-NW67.5 285 6 min 77,7 klux 531 W/m
13.08.2017 13:26 20,5 C 62 % 1018,7 hPa 0,0 l/m 12,0 km/h (2 Bft) W22.5 275 5 min 77,9 klux 533 W/m
13.08.2017 13:31 21,2 C 64 % 1018,7 hPa 0,0 l/m 11,3 km/h (2 Bft) W-SW45 245 5 min 80,2 klux 549 W/m
13.08.2017 13:35 21,6 C 63 % 1018,7 hPa 0,0 l/m 19,3 km/h (3 Bft) W-SW45 240 4 min 81,4 klux 557 W/m
13.08.2017 13:40 21,8 C 63 % 1018,7 hPa 0,0 l/m 14,2 km/h (3 Bft) SW45 220 5 min 82,0 klux 561 W/m
13.08.2017 13:46 21,8 C 60 % 1018,7 hPa 0,0 l/m 11,7 km/h (2 Bft) W-SW45 240 6 min 81,8 klux 560 W/m
13.08.2017 13:51 21,1 C 60 % 1018,7 hPa 0,0 l/m 11,1 km/h (2 Bft) W22.5 270 0 min 53,1 klux 363 W/m
13.08.2017 13:56 21,1 C 62 % 1018,7 hPa 0,0 l/m 12,7 km/h (3 Bft) SW67.5 225 5 min 80,3 klux 549 W/m
13.08.2017 14:00 21,8 C 60 % 1018,7 hPa 0,0 l/m 14,0 km/h (3 Bft) NW45 305 4 min 82,8 klux 566 W/m
13.08.2017 14:06 22,1 C 60 % 1018,6 hPa 0,0 l/m 13,7 km/h (3 Bft) W-NW45 295 6 min 83,2 klux 569 W/m
13.08.2017 14:11 22,3 C 58 % 1018,6 hPa 0,0 l/m 3,8 km/h (1 Bft) S-SW 200 0 min 21,0 klux 144 W/m
13.08.2017 14:15 21,8 C 59 % 1018,7 hPa 0,0 l/m 13,1 km/h (3 Bft) W-SW67.5 245 0 min 23,5 klux 161 W/m
13.08.2017 14:20 21,5 C 59 % 1018,7 hPa 0,0 l/m 11,0 km/h (2 Bft) N-NW22.5 330 0 min 18,2 klux 124 W/m
13.08.2017 14:26 21,2 C 58 % 1018,7 hPa 0,0 l/m 10,2 km/h (2 Bft) NW22.5 310 6 min 64,7 klux 443 W/m
13.08.2017 14:31 21,4 C 58 % 1018,7 hPa 0,0 l/m 17,0 km/h (3 Bft) SW45 230 0 min 22,7 klux 155 W/m
13.08.2017 14:36 21,3 C 57 % 1018,7 hPa 0,0 l/m 12,0 km/h (2 Bft) W-SW45 255 5 min 83,6 klux 572 W/m
13.08.2017 14:40 21,9 C 54 % 1018,7 hPa 0,0 l/m 10,0 km/h (2 Bft) W-NW45 295 4 min 86,4 klux 591 W/m
13.08.2017 14:45 22,3 C 55 % 1018,6 hPa 0,0 l/m 15,0 km/h (3 Bft) W67.5 270 5 min 78,7 klux 538 W/m
13.08.2017 14:51 22,3 C 57 % 1018,6 hPa 0,0 l/m 10,8 km/h (2 Bft) W-NW22.5 295 0 min 41,8 klux 286 W/m
13.08.2017 14:56 21,6 C 59 % 1018,7 hPa 0,0 l/m 16,9 km/h (3 Bft) NW22.5 310 0 min 22,6 klux 155 W/m
13.08.2017 15:01 21,4 C 60 % 1018,7 hPa 0,0 l/m 16,0 km/h (3 Bft) NW22.5 310 0 min 21,4 klux 146 W/m
13.08.2017 15:06 21,3 C 60 % 1018,7 hPa 0,0 l/m 17,0 km/h (3 Bft) NW22.5 305 0 min 21,2 klux 145 W/m
13.08.2017 15:11 21,2 C 60 % 1018,7 hPa 0,0 l/m 19,6 km/h (3 Bft) NW22.5 315 0 min 23,6 klux 161 W/m
13.08.2017 15:16 21,4 C 61 % 1018,7 hPa 0,0 l/m 19,4 km/h (3 Bft) N-NW45 330 0 min 31,7 klux 217 W/m
13.08.2017 15:20 21,6 C 60 % 1018,7 hPa 0,0 l/m 16,4 km/h (3 Bft) NW22.5 310 4 min 77,1 klux 527 W/m
13.08.2017 15:25 21,5 C 59 % 1018,7 hPa 0,0 l/m 16,8 km/h (3 Bft) NW45 310 0 min 39,2 klux 268 W/m
13.08.2017 15:31 21,2 C 60 % 1018,7 hPa 0,0 l/m 21,5 km/h (4 Bft) NW22.5 310 0 min 38,3 klux 262 W/m
13.08.2017 15:36 21,2 C 61 % 1018,7 hPa 0,0 l/m 20,3 km/h (4 Bft) NW22.5 310 0 min 38,4 klux 263 W/m
13.08.2017 15:41 21,0 C 61 % 1018,7 hPa 0,0 l/m 17,0 km/h (3 Bft) NW22.5 315 0 min 28,6 klux 196 W/m
13.08.2017 15:45 20,9 C 63 % 1018,7 hPa 0,0 l/m 17,8 km/h (3 Bft) NW22.5 320 0 min 27,8 klux 190 W/m
13.08.2017 15:50 20,9 C 64 % 1018,7 hPa 0,0 l/m 18,5 km/h (3 Bft) NW22.5 305 0 min 27,9 klux 191 W/m
13.08.2017 15:56 20,7 C 65 % 1018,7 hPa 0,0 l/m 17,5 km/h (3 Bft) NW45 325 0 min 28,3 klux 194 W/m
13.08.2017 16:01 20,6 C 66 % 1018,7 hPa 0,0 l/m 21,7 km/h (4 Bft) W-NW22.5 300 0 min 27,3 klux 187 W/m
13.08.2017 16:05 20,4 C 64 % 1018,7 hPa 0,0 l/m 19,8 km/h (3 Bft) W-NW22.5 300 0 min 25,6 klux 175 W/m
13.08.2017 16:11 20,4 C 64 % 1018,7 hPa 0,0 l/m 18,5 km/h (3 Bft) NW22.5 305 0 min 25,0 klux 171 W/m
13.08.2017 16:16 20,4 C 64 % 1018,7 hPa 0,0 l/m 16,1 km/h (3 Bft) NW22.5 315 0 min 21,0 klux 144 W/m
13.08.2017 16:21 20,4 C 64 % 1018,7 hPa 0,0 l/m 19,3 km/h (3 Bft) W-NW45 300 0 min 20,4 klux 140 W/m
13.08.2017 16:25 20,6 C 66 % 1018,7 hPa 0,0 l/m 16,5 km/h (3 Bft) W-NW45 295 0 min 28,5 klux 195 W/m
13.08.2017 16:30 20,8 C 64 % 1018,7 hPa 0,0 l/m 20,0 km/h (4 Bft) W22.5 275 0 min 35,9 klux 246 W/m
13.08.2017 16:36 20,7 C 63 % 1018,7 hPa 0,0 l/m 20,0 km/h (4 Bft) W-NW22.5 285 0 min 22,5 klux 154 W/m
13.08.2017 16:41 20,7 C 62 % 1018,7 hPa 0,0 l/m 21,5 km/h (4 Bft) W-NW22.5 285 0 min 21,3 klux 146 W/m
13.08.2017 16:46 20,8 C 62 % 1018,7 hPa 0,0 l/m 13,8 km/h (3 Bft) W22.5 275 0 min 20,6 klux 141 W/m
13.08.2017 16:50 20,8 C 60 % 1018,7 hPa 0,0 l/m 13,2 km/h (3 Bft) W-NW22.5 285 0 min 20,6 klux 141 W/m
13.08.2017 16:55 20,9 C 61 % 1018,7 hPa 0,0 l/m 12,5 km/h (2 Bft) W-NW22.5 295 0 min 21,5 klux 147 W/m
13.08.2017 17:01 20,9 C 61 % 1018,7 hPa 0,0 l/m 14,5 km/h (3 Bft) W-NW22.5 300 0 min 25,6 klux 175 W/m
13.08.2017 17:05 20,9 C 61 % 1018,7 hPa 0,0 l/m 13,6 km/h (3 Bft) W-NW22.5 300 0 min 27,4 klux 187 W/m
13.08.2017 17:10 21,0 C 60 % 1018,7 hPa 0,0 l/m 8,1 km/h (2 Bft) NW 320 0 min 26,4 klux 181 W/m
13.08.2017 17:16 21,2 C 60 % 1018,7 hPa 0,0 l/m 8,9 km/h (2 Bft) W-SW 250 0 min 31,6 klux 216 W/m
13.08.2017 17:21 21,5 C 59 % 1018,7 hPa 0,0 l/m 14,1 km/h (3 Bft) W-SW22.5 255 5 min 59,4 klux 406 W/m
13.08.2017 17:26 21,6 C 58 % 1018,7 hPa 0,0 l/m 11,8 km/h (2 Bft) NW45 320 5 min 50,6 klux 346 W/m
13.08.2017 17:30 21,5 C 58 % 1018,7 hPa 0,0 l/m 10,9 km/h (2 Bft) W-NW22.5 300 4 min 53,0 klux 363 W/m
13.08.2017 17:35 21,8 C 58 % 1018,7 hPa 0,0 l/m 14,6 km/h (3 Bft) W-NW45 285 5 min 48,7 klux 333 W/m
13.08.2017 17:41 21,9 C 60 % 1018,7 hPa 0,0 l/m 14,8 km/h (3 Bft) NW22.5 305 6 min 45,6 klux 312 W/m
13.08.2017 17:46 21,8 C 58 % 1018,7 hPa 0,0 l/m 12,0 km/h (2 Bft) NW22.5 305 0 min 37,3 klux 255 W/m
13.08.2017 17:51 21,7 C 59 % 1018,7 hPa 0,0 l/m 10,1 km/h (2 Bft) NW45 325 0 min 36,3 klux 248 W/m
13.08.2017 17:55 21,6 C 59 % 1018,7 hPa 0,0 l/m 8,1 km/h (2 Bft) N45 355 0 min 23,7 klux 162 W/m
13.08.2017 18:00 21,7 C 58 % 1018,7 hPa 0,0 l/m 10,0 km/h (2 Bft) N45 355 5 min 39,2 klux 268 W/m
13.08.2017 18:06 21,9 C 58 % 1018,7 hPa 0,0 l/m 1,0 km/h (0 Bft) N 360 6 min 35,7 klux 244 W/m
13.08.2017 18:10 22,0 C 56 % 1018,6 hPa 0,0 l/m 8,7 km/h (2 Bft) N22.5 350 4 min 34,4 klux 235 W/m
13.08.2017 18:15 22,1 C 55 % 1018,6 hPa 0,0 l/m 10,0 km/h (2 Bft) N-NW22.5 340 5 min 34,4 klux 235 W/m
13.08.2017 18:21 22,2 C 57 % 1018,6 hPa 0,0 l/m 7,3 km/h (2 Bft) N22.5 360 0 min 30,5 klux 209 W/m
13.08.2017 18:26 22,3 C 59 % 1018,6 hPa 0,0 l/m 10,1 km/h (2 Bft) N-NO22.5 30 0 min 29,0 klux 198 W/m
13.08.2017 18:31 22,3 C 59 % 1018,6 hPa 0,0 l/m 12,6 km/h (3 Bft) NO22.5 45 0 min 29,4 klux 201 W/m
13.08.2017 18:35 22,4 C 58 % 1018,6 hPa 0,0 l/m 6,3 km/h (2 Bft) N-NO 15 0 min 27,6 klux 189 W/m
13.08.2017 18:40 22,3 C 58 % 1018,6 hPa 0,0 l/m 8,7 km/h (2 Bft) NO45 40 0 min 25,5 klux 174 W/m
13.08.2017 18:46 22,2 C 57 % 1018,6 hPa 0,0 l/m 11,0 km/h (2 Bft) NO45 45 0 min 24,3 klux 166 W/m
13.08.2017 18:51 22,2 C 56 % 1018,6 hPa 0,0 l/m 7,9 km/h (2 Bft) N-NO22.5 30 5 min 28,6 klux 196 W/m
13.08.2017 18:55 22,3 C 55 % 1018,6 hPa 0,0 l/m 9,8 km/h (2 Bft) N-NO22.5 25 4 min 26,3 klux 180 W/m
13.08.2017 19:00 22,3 C 52 % 1018,6 hPa 0,0 l/m 11,3 km/h (2 Bft) N-NO22.5 20 5 min 23,8 klux 163 W/m
13.08.2017 19:06 22,4 C 52 % 1018,6 hPa 0,0 l/m 6,5 km/h (2 Bft) N-NO22.5 15 6 min 25,9 klux 177 W/m
13.08.2017 19:10 22,4 C 53 % 1018,6 hPa 0,0 l/m 5,9 km/h (2 Bft) N22.5 355 0 min 21,4 klux 146 W/m
13.08.2017 19:15 22,3 C 54 % 1018,6 hPa 0,0 l/m 1,2 km/h (1 Bft) N22.5 360 5 min 21,2 klux 145 W/m
13.08.2017 19:20 22,4 C 54 % 1018,6 hPa 0,0 l/m 7,6 km/h (2 Bft) NO 50 5 min 21,5 klux 147 W/m
13.08.2017 19:26 22,3 C 54 % 1018,6 hPa 0,0 l/m 7,2 km/h (2 Bft) N-NO 25 0 min 17,2 klux 118 W/m
13.08.2017 19:31 22,2 C 54 % 1018,6 hPa 0,0 l/m 8,7 km/h (2 Bft) N-NO 25 0 min 16,4 klux 112 W/m
13.08.2017 19:35 22,0 C 55 % 1018,6 hPa 0,0 l/m 0,6 km/h (0 Bft) N-NO 25 0 min 14,3 klux 98 W/m
13.08.2017 19:40 21,9 C 56 % 1018,7 hPa 0,0 l/m 0,0 km/h (0 Bft) N-NO 25 0 min 13,1 klux 90 W/m
13.08.2017 19:46 22,0 C 56 % 1018,6 hPa 0,0 l/m 0,1 km/h (0 Bft) N-NO 25 0 min 12,2 klux 83 W/m
13.08.2017 19:51 21,7 C 57 % 1018,7 hPa 0,0 l/m 0,1 km/h (0 Bft) N-NO 25 0 min 9,9 klux 67 W/m
13.08.2017 19:56 21,5 C 57 % 1018,7 hPa 0,0 l/m 0,0 km/h (0 Bft) N-NO 25 0 min 7,98 klux 55 W/m
13.08.2017 20:00 21,6 C 57 % 1018,7 hPa 0,0 l/m 0,0 km/h (0 Bft) N-NO 25 0 min 7,78 klux 53 W/m
13.08.2017 20:06 21,5 C 58 % 1018,7 hPa 0,0 l/m 0,0 km/h (0 Bft) N-NO 25 0 min 6,45 klux 44 W/m
13.08.2017 20:11 21,4 C 58 % 1018,7 hPa 0,0 l/m 0,0 km/h (0 Bft) N-NO 25 0 min 4,84 klux 33 W/m
13.08.2017 20:15 21,0 C 58 % 1018,7 hPa 0,0 l/m 0,0 km/h (0 Bft) N-NO 25 0 min 4,03 klux 28 W/m
13.08.2017 20:20 20,7 C 59 % 1018,7 hPa 0,0 l/m 0,0 km/h (0 Bft) N-NO 25 0 min 3,55 klux 24 W/m
13.08.2017 20:26 20,4 C 60 % 1018,7 hPa 0,0 l/m 0,0 km/h (0 Bft) N-NO 25 0 min 3,03 klux 21 W/m
13.08.2017 20:31 20,2 C 60 % 1018,7 hPa 0,0 l/m 0,0 km/h (0 Bft) N-NO 25 0 min 2,57 klux 18 W/m
13.08.2017 20:36 19,6 C 61 % 1018,7 hPa 0,0 l/m 0,0 km/h (0 Bft) N-NO 25 0 min 2,48 klux 17 W/m
13.08.2017 20:40 19,3 C 62 % 1018,7 hPa 0,0 l/m 0,0 km/h (0 Bft) N-NO 25 0 min 1,63 klux 11 W/m
13.08.2017 20:45 19,4 C 62 % 1018,7 hPa 0,0 l/m 0,0 km/h (0 Bft) N-NO 25 0 min 1,21 klux 8 W/m
13.08.2017 20:51 19,3 C 62 % 1018,7 hPa 0,0 l/m 0,0 km/h (0 Bft) N-NO 25 0 min 820 lux 6 W/m
13.08.2017 20:56 19,2 C 63 % 1018,7 hPa 0,0 l/m 0,0 km/h (0 Bft) N-NO 25 0 min 529 lux 0 W/m
13.08.2017 21:01 19,0 C 63 % 1018,7 hPa 0,0 l/m 0,0 km/h (0 Bft) N-NO 25 0 min 335 lux 0 W/m
13.08.2017 21:06 18,9 C 64 % 1019,7 hPa 0,0 l/m 0,0 km/h (0 Bft) N-NO 25 0 min 192 lux 0 W/m
13.08.2017 21:11 18,7 C 64 % 1019,7 hPa 0,0 l/m 0,0 km/h (0 Bft) N-NO 25 0 min 107 lux 0 W/m
13.08.2017 21:16 18,6 C 65 % 1019,7 hPa 0,0 l/m 14,8 km/h (3 Bft) O-NO22.5 65 0 min 77 lux 0 W/m
13.08.2017 21:20 18,5 C 65 % 1019,7 hPa 0,0 l/m 0,4 km/h (0 Bft) O-NO 70 0 min 38 lux 0 W/m
13.08.2017 21:25 18,5 C 66 % 1019,7 hPa 0,0 l/m 5,8 km/h (2 Bft) O-NO 70 0 min 16 lux 0 W/m
13.08.2017 21:31 18,6 C 67 % 1019,7 hPa 0,0 l/m 6,6 km/h (2 Bft) O-NO22.5 70 0 min 5 lux 0 W/m
13.08.2017 21:36 18,6 C 67 % 1019,7 hPa 0,0 l/m 9,8 km/h (2 Bft) O-NO22.5 70 0 min 1 lux 0 W/m
13.08.2017 21:40 18,7 C 67 % 1019,7 hPa 0,0 l/m 7,9 km/h (2 Bft) O-NO22.5 70 0 min 0 lux 0 W/m
13.08.2017 21:45 18,7 C 67 % 1019,7 hPa 0,0 l/m 6,7 km/h (2 Bft) NO22.5 50 0 min 0 lux 0 W/m
13.08.2017 21:51 18,5 C 68 % 1019,7 hPa 0,0 l/m 13,0 km/h (3 Bft) O22.5 85 0 min 0 lux 0 W/m
13.08.2017 21:56 18,6 C 67 % 1019,7 hPa 0,0 l/m 12,0 km/h (2 Bft) O22.5 80 0 min 0 lux 0 W/m
13.08.2017 22:01 18,6 C 67 % 1019,7 hPa 0,0 l/m 14,5 km/h (3 Bft) NO22.5 50 0 min 0 lux 0 W/m
13.08.2017 22:06 18,7 C 66 % 1019,7 hPa 0,0 l/m 15,1 km/h (3 Bft) NO22.5 55 0 min 0 lux 0 W/m
13.08.2017 22:11 18,6 C 66 % 1019,7 hPa 0,0 l/m 6,3 km/h (2 Bft) O-NO22.5 70 0 min 0 lux 0 W/m
13.08.2017 22:16 18,4 C 66 % 1019,7 hPa 0,0 l/m 8,2 km/h (2 Bft) O-NO22.5 70 0 min 0 lux 0 W/m
13.08.2017 22:20 18,3 C 66 % 1019,7 hPa 0,0 l/m 9,6 km/h (2 Bft) O-NO22.5 65 0 min 0 lux 0 W/m
13.08.2017 22:25 18,3 C 66 % 1019,7 hPa 0,0 l/m 8,4 km/h (2 Bft) NO 50 0 min 0 lux 0 W/m
13.08.2017 22:31 18,1 C 66 % 1019,7 hPa 0,0 l/m 10,3 km/h (2 Bft) O-NO45 65 0 min 0 lux 0 W/m
13.08.2017 22:36 18,0 C 66 % 1019,7 hPa 0,0 l/m 0,9 km/h (0 Bft) NO 40 0 min 0 lux 0 W/m
13.08.2017 22:41 17,8 C 66 % 1019,7 hPa 0,0 l/m 0,6 km/h (0 Bft) NO 40 0 min 0 lux 0 W/m
13.08.2017 22:45 17,5 C 67 % 1019,7 hPa 0,0 l/m 1,2 km/h (1 Bft) O22.5 80 0 min 0 lux 0 W/m
13.08.2017 22:50 17,5 C 68 % 1019,7 hPa 0,0 l/m 5,7 km/h (2 Bft) O-NO22.5 75 0 min 0 lux 0 W/m
13.08.2017 22:56 17,5 C 68 % 1019,7 hPa 0,0 l/m 5,9 km/h (2 Bft) O-NO22.5 60 0 min 0 lux 0 W/m
13.08.2017 23:01 17,5 C 68 % 1019,7 hPa 0,0 l/m 10,2 km/h (2 Bft) O-NO22.5 60 0 min 0 lux 0 W/m
13.08.2017 23:05 17,5 C 68 % 1019,7 hPa 0,0 l/m 8,9 km/h (2 Bft) O-NO22.5 60 0 min 0 lux 0 W/m
13.08.2017 23:11 17,3 C 68 % 1019,7 hPa 0,0 l/m 7,8 km/h (2 Bft) O-NO22.5 65 0 min 0 lux 0 W/m
13.08.2017 23:16 17,2 C 68 % 1019,7 hPa 0,0 l/m 0,4 km/h (0 Bft) O-NO 65 0 min 0 lux 0 W/m
13.08.2017 23:20 17,0 C 69 % 1019,7 hPa 0,0 l/m 6,7 km/h (2 Bft) NO22.5 55 0 min 0 lux 0 W/m
13.08.2017 23:25 17,1 C 70 % 1019,7 hPa 0,0 l/m 7,6 km/h (2 Bft) O-NO22.5 70 0 min 0 lux 0 W/m
13.08.2017 23:30 17,2 C 70 % 1019,7 hPa 0,0 l/m 10,0 km/h (2 Bft) O22.5 80 0 min 0 lux 0 W/m
13.08.2017 23:36 17,3 C 69 % 1019,7 hPa 0,0 l/m 8,9 km/h (2 Bft) O45 85 0 min 0 lux 0 W/m
13.08.2017 23:41 17,2 C 70 % 1019,7 hPa 0,0 l/m 4,8 km/h (1 Bft) O-NO45 70 0 min 0 lux 0 W/m
13.08.2017 23:45 17,2 C 70 % 1019,7 hPa 0,0 l/m 8,6 km/h (2 Bft) O45 85 0 min 0 lux 0 W/m
13.08.2017 23:50 17,1 C 70 % 1019,7 hPa 0,0 l/m 9,3 km/h (2 Bft) O45 85 0 min 0 lux 0 W/m
13.08.2017 23:56 17,0 C 70 % 1019,7 hPa 0,0 l/m 5,3 km/h (1 Bft) O22.5 95 0 min 0 lux 0 W/m
_ Min-Zeit 08:06 19:00 00:05 - 02:00 - - - - -
Minimum _ 15,3 C 52 % 1014,7 hPa - 0,0 km/h (0 Bft) - - - - -
_ Max-Zeit 18:35 05:25 23:20 01:35 12:55 - - 08:26 14:40 14:40
Maximum _ 22,4 C 89 % 1019,7 hPa 0,4 l/m 22,0 km/h
W (4 Bft)
- - 6 min 86,4 klux 591 W/m
Durchschnitt _ 18,5 C 74 % 1017,7 hPa #0,8 l/m 8,3 km/h (2 Bft) SW - #5:57 h 21,9 klux 247 W/m